Sunday, May 27, 2018, 11:43 AM EDT
Back to Local

KFVE, Northern Aroostook Regional

Location: Saint Agatha, ME, United States Lat: 47.283
Local Time: 11:43 AM EDT (15:43 GMT) Lon: -68.3
Time Zone: US/Eastern Elev: 987 ft

Show me the last for .
Show Decoded

2018-05-27 10:53 METAR KFVE 271453Z AUTO 14012KT 10SM CLR 14/01 A3024 RMK AO2 SLP241 T01440006
                 58007 =
2018-05-27 09:53 METAR KFVE 271353Z AUTO 13009KT 10SM CLR 14/02 A3025 RMK AO2 SLP246 T01390022 =
2018-05-27 08:53 METAR KFVE 271253Z AUTO 17006KT 10SM CLR 12/02 A3026 RMK AO2 SLP249 T01170022 =
2018-05-27 07:53 METAR KFVE 271153Z AUTO 15006KT 10SM CLR 09/01 A3026 RMK AO2 SLP249 T00940011
                 10094 20056 53013 =
2018-05-27 06:53 METAR KFVE 271053Z AUTO 12005KT 10SM CLR 08/M01 A3025 RMK AO2 SLP244 T00781011 =
2018-05-27 05:53 METAR KFVE 270953Z AUTO 10006KT 10SM CLR 07/M02 A3023 RMK AO2 SLP239 T00721022 =
2018-05-27 04:53 METAR KFVE 270853Z AUTO 09006KT 10SM CLR 07/M03 A3022 RMK AO2 SLP235 T00671028
                 51017 =
2018-05-27 03:53 METAR KFVE 270753Z AUTO 13003KT 10SM CLR 06/M03 A3021 RMK AO2 SLP232 T00611028 =
2018-05-27 02:53 METAR KFVE 270653Z AUTO 04003KT 10SM CLR 07/M03 A3019 RMK AO2 SLP223 T00721028 =
2018-05-27 01:53 METAR KFVE 270553Z AUTO 00000KT 10SM CLR 08/M03 A3017 RMK AO2 SLP217 T00831033
                 10133 20078 51021 =
2018-05-27 00:53 METAR KFVE 270453Z AUTO 06004KT 10SM CLR 09/M03 A3015 RMK AO2 SLP211 T00891033
                 401830089 =
2018-05-26 23:53 METAR KFVE 270353Z AUTO 03005KT 10SM CLR 09/M03 A3013 RMK AO2 SLP202 T00941033 =
2018-05-26 22:53 METAR KFVE 270253Z AUTO 04007KT 10SM CLR 09/M03 A3011 RMK AO2 SLP195 T00941033
                 51026 =
2018-05-26 21:53 METAR KFVE 270153Z AUTO 03008KT 10SM CLR 10/M04 A3009 RMK AO2 SLP188 T01001039 =
2018-05-26 20:53 METAR KFVE 270053Z AUTO 03006KT 10SM CLR 11/M04 A3006 RMK AO2 SLP179 T01111039 =
2018-05-26 19:53 METAR KFVE 262353Z AUTO 02006KT 10SM CLR 13/M04 A3003 RMK AO2 SLP167 T01331044
                 10183 20133 51037 =
2018-05-26 18:53 METAR KFVE 262253Z AUTO 03011G18KT 10SM CLR 14/M04 A2999 RMK AO2 SLP155
                 T01441044 =
2018-05-26 17:53 METAR KFVE 262153Z AUTO 01011G20KT 10SM CLR 16/M03 A2995 RMK AO2 SLP142
                 T01611033 =
2018-05-26 16:53 METAR KFVE 262053Z AUTO 36014G24KT 10SM CLR 17/M03 A2991 RMK AO2 SLP128
                 T01671028 51028 =
2018-05-26 15:53 METAR KFVE 261953Z AUTO 35015G25KT 330V030 10SM CLR 17/M02 A2988 RMK AO2 SLP118
                 T01721017 =
2018-05-26 14:53 METAR KFVE 261853Z AUTO 35016G24KT 10SM CLR 17/M01 A2986 RMK AO2 PK WND
                 36028/1835 SLP108 T01721011 =
2018-05-26 13:53 METAR KFVE 261753Z AUTO 35013G25KT 10SM CLR 17/M01 A2983 RMK AO2 PK WND
                 33029/1718 SLP097 T01721011 10172 20128 53023 =
2018-05-26 12:53 METAR KFVE 261653Z AUTO 36015G26KT 10SM CLR 17/00 A2980 RMK AO2 PK WND
                 32027/1639 SLP089 T01720000 =
2018-05-26 11:53 METAR KFVE 261553Z AUTO 31015KT 10SM CLR 16/01 A2978 RMK AO2 PK WND 01026/1540
                 SLP081 T01610011 =

Support USWX by starting your Amazon purchase here.